createdAt,value
2018-12-20T00:02:10.790Z,22.67
2018-12-20T00:04:39.098Z,20.80
2018-12-20T00:07:07.331Z,21.93
2018-12-20T00:09:35.790Z,24.23
2018-12-20T00:12:05.089Z,21.57
2018-12-20T00:14:33.266Z,22.57
2018-12-20T00:17:07.198Z,22.77
2018-12-20T00:19:35.493Z,23.13
2018-12-20T00:22:03.874Z,22.83
2018-12-20T00:24:32.169Z,18.40
2018-12-20T00:27:00.623Z,21.40
2018-12-20T00:29:29.139Z,22.43
2018-12-20T00:31:57.464Z,21.77
2018-12-20T00:34:25.904Z,21.30
2018-12-20T00:36:54.205Z,20.30
2018-12-20T00:39:22.610Z,21.37
2018-12-20T00:41:51.087Z,19.10
2018-12-20T00:44:19.450Z,22.13
2018-12-20T00:46:47.769Z,20.67
2018-12-20T00:49:16.137Z,21.90
2018-12-20T00:51:44.455Z,24.43
2018-12-20T00:54:12.683Z,22.00
2018-12-20T00:56:41.054Z,21.90
2018-12-20T00:59:09.430Z,22.70
2018-12-20T01:01:37.631Z,22.93
2018-12-20T01:04:05.946Z,22.30
2018-12-20T01:06:34.145Z,23.50
2018-12-20T01:09:02.498Z,23.53
2018-12-20T01:11:30.780Z,21.07
2018-12-20T01:13:59.055Z,21.13
2018-12-20T01:16:27.242Z,22.23
2018-12-20T01:18:55.525Z,21.30
2018-12-20T01:21:23.929Z,22.50
2018-12-20T01:23:52.725Z,21.07
2018-12-20T01:26:21.600Z,21.40
2018-12-20T01:28:49.964Z,20.27
2018-12-20T01:31:18.172Z,22.73
2018-12-20T01:33:46.388Z,21.33
2018-12-20T01:36:14.784Z,21.10
2018-12-20T01:38:43.398Z,21.73
2018-12-20T01:41:11.730Z,22.43
2018-12-20T01:43:39.988Z,23.33
2018-12-20T01:46:08.397Z,21.50
2018-12-20T01:48:36.791Z,24.30
2018-12-20T01:51:04.997Z,24.10
2018-12-20T01:53:33.302Z,23.00
2018-12-20T01:56:01.502Z,23.07
2018-12-20T01:58:29.914Z,22.90
2018-12-20T02:00:58.370Z,23.73
2018-12-20T02:03:26.902Z,27.00
2018-12-20T02:05:55.094Z,23.03
2018-12-20T02:08:23.393Z,21.80
2018-12-20T02:10:51.574Z,24.70
2018-12-20T02:13:19.978Z,21.40
2018-12-20T02:15:48.587Z,21.90
2018-12-20T02:18:16.998Z,24.30
2018-12-20T02:20:45.165Z,24.87
2018-12-20T02:23:13.628Z,25.20
2018-12-20T02:25:41.890Z,24.83
2018-12-20T02:28:10.102Z,22.20
2018-12-20T02:30:38.400Z,21.77
2018-12-20T02:33:06.608Z,24.30
2018-12-20T02:35:34.972Z,23.93
2018-12-20T02:38:03.430Z,24.43
2018-12-20T02:40:31.642Z,23.93
2018-12-20T02:42:59.894Z,25.10
2018-12-20T02:45:28.209Z,23.97
2018-12-20T02:47:56.579Z,23.60
2018-12-20T02:50:25.076Z,25.90
2018-12-20T02:52:53.559Z,25.20
2018-12-20T02:55:21.882Z,25.50
2018-12-20T02:57:50.216Z,24.20
2018-12-20T03:00:18.645Z,26.60
2018-12-20T03:02:47.174Z,23.57
2018-12-20T03:05:15.411Z,25.20
2018-12-20T03:07:43.763Z,24.67
2018-12-20T03:10:12.253Z,24.23
2018-12-20T03:12:40.582Z,26.37
2018-12-20T03:15:08.900Z,23.37
2018-12-20T03:17:37.371Z,24.70
2018-12-20T03:20:06.536Z,24.60
2018-12-20T03:22:34.966Z,23.30
2018-12-20T03:25:03.220Z,25.90
2018-12-20T03:27:31.396Z,25.63
2018-12-20T03:29:59.804Z,24.23
2018-12-20T03:32:28.059Z,24.30
2018-12-20T03:34:56.352Z,25.60
2018-12-20T03:37:24.794Z,26.30
2018-12-20T03:39:53.406Z,25.10
2018-12-20T03:42:21.721Z,23.47
2018-12-20T03:44:50.145Z,25.63
2018-12-20T03:47:18.429Z,25.07
2018-12-20T03:49:46.978Z,22.70
2018-12-20T03:52:15.400Z,24.00
2018-12-20T03:54:43.942Z,25.23
2018-12-20T03:57:12.457Z,25.40
2018-12-20T03:59:40.778Z,25.60
2018-12-20T04:02:09.070Z,25.90
2018-12-20T04:04:37.627Z,23.77
2018-12-20T04:07:06.179Z,25.13
2018-12-20T04:09:34.658Z,24.63
2018-12-20T04:12:02.881Z,24.63
2018-12-20T04:14:31.088Z,24.93
2018-12-20T04:17:00.041Z,24.37
2018-12-20T04:19:28.576Z,24.43
2018-12-20T04:21:57.050Z,28.40
2018-12-20T04:24:25.574Z,28.77
2018-12-20T04:26:53.999Z,26.73
2018-12-20T04:29:22.299Z,26.17
2018-12-20T04:31:50.532Z,28.80
2018-12-20T04:34:18.907Z,26.40
2018-12-20T04:36:47.191Z,26.70
2018-12-20T04:39:15.364Z,26.67
2018-12-20T04:41:43.662Z,25.47
2018-12-20T04:44:11.868Z,26.67
2018-12-20T04:46:40.289Z,26.50
2018-12-20T04:49:08.833Z,25.00
2018-12-20T04:51:37.248Z,25.50
2018-12-20T04:54:05.560Z,27.83
2018-12-20T04:56:33.761Z,26.37
2018-12-20T04:59:02.055Z,27.50
2018-12-20T05:01:30.338Z,26.20
2018-12-20T05:03:58.946Z,27.27
2018-12-20T05:06:27.380Z,26.23
2018-12-20T05:08:55.972Z,26.70
2018-12-20T05:11:24.357Z,26.60
2018-12-20T05:13:52.660Z,28.17
2018-12-20T05:16:20.968Z,28.03
2018-12-20T05:18:49.435Z,27.47
2018-12-20T05:21:17.814Z,28.33
2018-12-20T05:23:46.140Z,27.60
2018-12-20T05:26:14.464Z,26.47
2018-12-20T05:28:42.882Z,27.63
2018-12-20T05:31:11.164Z,27.90
2018-12-20T05:33:39.360Z,24.37
2018-12-20T05:36:07.908Z,25.50
2018-12-20T05:38:36.308Z,26.03
2018-12-20T05:41:04.704Z,27.80
2018-12-20T05:43:32.931Z,28.20
2018-12-20T05:46:04.615Z,27.30
2018-12-20T05:48:31.337Z,26.87
2018-12-20T05:50:59.551Z,26.97
2018-12-20T05:53:27.751Z,28.73
2018-12-20T05:55:56.598Z,28.57
2018-12-20T05:58:24.868Z,30.37
2018-12-20T06:00:53.031Z,29.53
2018-12-20T06:03:21.274Z,31.43
2018-12-20T06:05:49.673Z,28.57
2018-12-20T06:08:17.845Z,26.97
2018-12-20T06:10:46.021Z,28.13
2018-12-20T06:13:14.250Z,28.17
2018-12-20T06:15:42.425Z,28.50
2018-12-20T06:18:10.745Z,26.37
2018-12-20T06:20:39.508Z,29.13
2018-12-20T06:23:07.753Z,29.73
2018-12-20T06:25:35.918Z,30.00
2018-12-20T06:28:04.124Z,28.20
2018-12-20T06:30:32.298Z,29.90
2018-12-20T06:33:00.475Z,30.77
2018-12-20T06:35:28.699Z,28.87
2018-12-20T06:37:56.888Z,31.73
2018-12-20T06:40:25.129Z,28.13
2018-12-20T06:42:53.343Z,30.00
2018-12-20T06:45:21.511Z,27.73
2018-12-20T06:47:49.782Z,28.77
2018-12-20T06:50:17.994Z,29.30
2018-12-20T06:52:46.191Z,30.97
2018-12-20T06:55:14.454Z,29.70
2018-12-20T06:57:42.796Z,29.63
2018-12-20T07:00:11.104Z,31.10
2018-12-20T07:02:39.486Z,30.40
2018-12-20T07:05:07.958Z,31.50
2018-12-20T07:07:36.138Z,30.53
2018-12-20T07:10:06.384Z,30.07
2018-12-20T07:12:34.740Z,28.63
2018-12-20T07:15:02.912Z,28.43
2018-12-20T07:17:31.087Z,30.87
2018-12-20T07:19:59.335Z,31.37
2018-12-20T07:22:27.576Z,33.20
2018-12-20T07:24:55.924Z,31.40
2018-12-20T07:27:24.173Z,30.43
2018-12-20T07:29:52.396Z,30.30
2018-12-20T07:32:25.076Z,31.40
2018-12-20T07:34:50.935Z,30.00
2018-12-20T07:37:19.113Z,31.87
2018-12-20T07:39:47.396Z,34.00
2018-12-20T07:42:15.597Z,31.20
2018-12-20T07:44:43.769Z,31.63
2018-12-20T07:47:12.243Z,31.90
2018-12-20T07:49:40.449Z,33.77
2018-12-20T07:52:08.616Z,34.20
2018-12-20T07:54:36.894Z,33.40
2018-12-20T07:57:05.097Z,33.27
2018-12-20T07:59:33.271Z,33.50
2018-12-20T08:02:01.462Z,33.50
2018-12-20T08:04:29.656Z,36.00
2018-12-20T08:06:57.832Z,33.97
2018-12-20T08:09:25.991Z,36.70
2018-12-20T08:11:54.177Z,35.03
2018-12-20T08:14:22.353Z,32.57
2018-12-20T08:16:50.749Z,32.37
2018-12-20T08:19:18.949Z,34.43
2018-12-20T08:21:47.115Z,32.50
2018-12-20T08:24:15.297Z,33.87
2018-12-20T08:26:43.498Z,36.43
2018-12-20T08:29:11.875Z,31.57
2018-12-20T08:31:40.211Z,35.10
2018-12-20T08:34:08.542Z,35.70
2018-12-20T08:36:36.714Z,34.07
2018-12-20T08:39:07.239Z,33.70
2018-12-20T08:41:35.518Z,34.03
2018-12-20T08:44:03.688Z,35.73
2018-12-20T08:46:31.866Z,33.70
2018-12-20T08:49:00.107Z,36.70
2018-12-20T08:51:28.333Z,37.30
2018-12-20T08:53:56.619Z,35.60
2018-12-20T08:56:24.805Z,35.10
2018-12-20T08:58:52.977Z,32.90
2018-12-20T09:01:21.155Z,35.20
2018-12-20T09:03:49.398Z,33.13
2018-12-20T09:06:17.579Z,37.77
2018-12-20T09:08:45.821Z,36.37
2018-12-20T09:11:14.026Z,35.73
2018-12-20T09:13:42.194Z,34.37
2018-12-20T09:16:10.369Z,34.73
2018-12-20T09:18:38.569Z,38.30
2018-12-20T09:21:06.740Z,38.47
2018-12-20T09:23:34.910Z,35.60
2018-12-20T09:26:03.179Z,35.10
2018-12-20T09:28:31.362Z,36.17
2018-12-20T09:30:59.542Z,35.27
2018-12-20T09:33:27.740Z,36.73
2018-12-20T09:35:55.914Z,36.50
2018-12-20T09:38:24.095Z,39.80
2018-12-20T09:40:52.290Z,39.30
2018-12-20T09:43:20.544Z,38.07
2018-12-20T09:45:48.732Z,37.83
2018-12-20T09:48:16.927Z,37.80
2018-12-20T09:50:45.117Z,41.20
2018-12-20T09:53:13.648Z,39.90
2018-12-20T09:55:41.846Z,38.67
2018-12-20T09:58:10.027Z,43.67
2018-12-20T10:00:38.200Z,43.47
2018-12-20T10:03:06.483Z,44.10
2018-12-20T10:05:34.668Z,41.73
2018-12-20T10:08:02.990Z,42.43
2018-12-20T10:10:31.311Z,44.83
2018-12-20T10:12:59.651Z,43.13
2018-12-20T10:15:27.830Z,42.80
2018-12-20T10:17:56.137Z,47.67
2018-12-20T10:20:24.329Z,45.60
2018-12-20T10:22:52.512Z,44.50
2018-12-20T10:25:20.713Z,44.50
2018-12-20T10:27:48.888Z,47.60
2018-12-20T10:30:17.078Z,44.00
2018-12-20T10:32:45.350Z,45.93
2018-12-20T10:35:13.524Z,43.53
2018-12-20T10:37:41.697Z,47.93
2018-12-20T10:40:10.082Z,43.00
2018-12-20T10:42:38.268Z,44.90
2018-12-20T10:45:06.681Z,46.73
2018-12-20T10:47:34.948Z,47.10
2018-12-20T10:50:03.289Z,44.40
2018-12-20T10:52:31.465Z,41.80
2018-12-20T10:54:59.661Z,45.00
2018-12-20T10:57:30.185Z,44.27
2018-12-20T10:59:58.347Z,44.37
2018-12-20T11:02:32.296Z,43.70
2018-12-20T11:05:01.940Z,44.07
2018-12-20T11:07:37.267Z,45.30
2018-12-20T11:10:13.488Z,40.93
2018-12-20T11:12:48.678Z,43.07
2018-12-20T11:15:18.273Z,45.87
2018-12-20T11:17:46.451Z,43.30
2018-12-20T11:20:14.636Z,41.50
2018-12-20T11:22:43.749Z,42.50
2018-12-20T11:25:11.913Z,42.10
2018-12-20T11:27:40.096Z,41.20
2018-12-20T11:30:10.298Z,41.40
2018-12-20T11:32:40.388Z,42.27
2018-12-20T11:35:08.759Z,41.97
2018-12-20T11:37:37.081Z,40.97
2018-12-20T11:40:05.289Z,39.40
2018-12-20T11:42:33.467Z,42.10
2018-12-20T11:45:03.069Z,42.87
2018-12-20T11:47:31.485Z,40.47
2018-12-20T11:49:59.692Z,42.00
2018-12-20T11:52:27.848Z,39.03
2018-12-20T11:54:57.579Z,39.33
2018-12-20T11:57:25.781Z,40.83
2018-12-20T11:59:54.010Z,37.17
2018-12-20T12:02:24.562Z,40.87
2018-12-20T12:04:52.521Z,41.93
2018-12-20T12:07:20.688Z,40.00
2018-12-20T12:09:48.882Z,40.20
2018-12-20T12:12:17.185Z,40.83
2018-12-20T12:14:46.883Z,41.60
2018-12-20T12:17:15.090Z,40.77
2018-12-20T12:19:44.209Z,41.70
2018-12-20T12:22:12.372Z,39.30
2018-12-20T12:24:43.021Z,42.00
2018-12-20T12:27:11.315Z,41.93
2018-12-20T12:29:39.608Z,43.20
2018-12-20T12:32:07.904Z,42.47
2018-12-20T12:34:36.077Z,43.20
2018-12-20T12:37:04.261Z,42.70
2018-12-20T12:39:32.452Z,42.17
2018-12-20T12:42:00.638Z,40.97
2018-12-20T12:44:28.809Z,41.27
2018-12-20T12:46:57.005Z,41.20
2018-12-20T12:49:25.331Z,40.30
2018-12-20T12:51:53.578Z,43.30
2018-12-20T12:54:21.839Z,41.93
2018-12-20T12:56:50.014Z,43.43
2018-12-20T12:59:18.200Z,42.50
2018-12-20T13:01:46.414Z,42.90
2018-12-20T13:04:14.584Z,39.70
2018-12-20T13:06:42.858Z,38.70
2018-12-20T13:09:11.067Z,39.30
2018-12-20T13:11:39.240Z,44.87
2018-12-20T13:14:07.408Z,44.70
2018-12-20T13:16:35.661Z,43.30
2018-12-20T13:19:03.977Z,42.27
2018-12-20T13:21:32.166Z,42.23
2018-12-20T13:24:00.385Z,44.13
2018-12-20T13:26:28.553Z,40.93
2018-12-20T13:28:56.712Z,45.87
2018-12-20T13:31:24.902Z,45.47
2018-12-20T13:33:53.226Z,45.87
2018-12-20T13:36:21.399Z,41.97
2018-12-20T13:38:49.703Z,43.40
2018-12-20T13:41:17.880Z,44.33
2018-12-20T13:43:46.118Z,47.90
2018-12-20T13:46:14.327Z,47.47
2018-12-20T13:48:42.519Z,41.70
2018-12-20T13:51:10.691Z,47.23
2018-12-20T13:53:38.888Z,47.10
2018-12-20T13:56:07.236Z,45.10
2018-12-20T13:58:37.671Z,47.30
2018-12-20T14:01:05.660Z,49.07
2018-12-20T14:03:33.936Z,47.57
2018-12-20T14:06:02.114Z,50.13
2018-12-20T14:08:30.319Z,48.10
2018-12-20T14:10:58.510Z,46.47
2018-12-20T14:13:26.672Z,48.70
2018-12-20T14:15:54.870Z,46.90
2018-12-20T14:18:30.636Z,44.90
2018-12-20T14:20:53.243Z,45.40
2018-12-20T14:23:21.480Z,46.77
2018-12-20T14:25:49.666Z,44.80
2018-12-20T14:28:17.840Z,51.20
2018-12-20T14:30:46.036Z,49.23
2018-12-20T14:33:14.219Z,45.87
2018-12-20T14:35:42.411Z,47.30
2018-12-20T14:38:10.701Z,46.97
2018-12-20T14:40:39.319Z,48.03
2018-12-20T14:43:07.543Z,48.57
2018-12-20T14:45:35.747Z,50.00
2018-12-20T14:48:03.928Z,51.73
2018-12-20T14:50:32.115Z,46.40
2018-12-20T14:53:00.399Z,50.33
2018-12-20T14:55:28.585Z,46.03
2018-12-20T14:57:56.760Z,48.00
2018-12-20T15:00:24.969Z,49.30
2018-12-20T15:02:53.148Z,50.73
2018-12-20T15:05:21.384Z,50.27
2018-12-20T15:07:52.871Z,50.87
2018-12-20T15:10:21.044Z,47.27
2018-12-20T15:12:49.236Z,48.93
2018-12-20T15:15:17.444Z,49.97
2018-12-20T15:17:45.625Z,47.10
2018-12-20T15:20:13.794Z,48.97
2018-12-20T15:22:41.994Z,49.83
2018-12-20T15:25:10.273Z,48.80
2018-12-20T15:27:38.450Z,49.30
2018-12-20T15:30:10.755Z,48.33
2018-12-20T15:32:38.967Z,48.47
2018-12-20T15:35:07.160Z,50.10
2018-12-20T15:37:35.367Z,49.77
2018-12-20T15:40:06.073Z,49.30
2018-12-20T15:42:34.301Z,52.40
2018-12-20T15:45:02.510Z,48.60
2018-12-20T15:47:30.771Z,54.27
2018-12-20T15:49:58.966Z,47.23
2018-12-20T15:52:27.334Z,49.50
2018-12-20T15:54:55.680Z,49.53
2018-12-20T15:57:23.853Z,50.03
2018-12-20T15:59:52.172Z,50.17
2018-12-20T16:02:20.351Z,49.10
2018-12-20T16:04:48.765Z,45.70
2018-12-20T16:07:16.961Z,49.07
2018-12-20T16:09:45.151Z,49.80
2018-12-20T16:12:13.458Z,49.90
2018-12-20T16:14:41.672Z,48.60
2018-12-20T16:17:09.840Z,46.53
2018-12-20T16:19:38.201Z,48.80
2018-12-20T16:22:06.586Z,50.80
2018-12-20T16:24:34.772Z,49.50
2018-12-20T16:27:02.957Z,49.43
2018-12-20T16:29:31.181Z,49.87
2018-12-20T16:31:59.654Z,50.63
2018-12-20T16:34:27.928Z,52.50
2018-12-20T16:36:56.117Z,51.53
2018-12-20T16:39:24.293Z,49.73
2018-12-20T16:41:52.588Z,52.97
2018-12-20T16:44:20.841Z,49.80
2018-12-20T16:46:49.013Z,49.23
2018-12-20T16:49:17.184Z,51.60
2018-12-20T16:51:45.804Z,52.30
2018-12-20T16:54:13.979Z,59.90
2018-12-20T16:56:42.530Z,55.30
2018-12-20T16:59:10.905Z,53.93
2018-12-20T17:01:39.560Z,59.40
2018-12-20T17:04:07.732Z,59.17
2018-12-20T17:06:35.918Z,55.83
2018-12-20T17:09:06.883Z,54.40
2018-12-20T17:11:35.448Z,54.20
2018-12-20T17:14:04.243Z,53.60
2018-12-20T17:16:32.562Z,50.77
2018-12-20T17:19:00.734Z,55.53
2018-12-20T17:21:29.056Z,53.40
2018-12-20T17:23:57.248Z,52.73
2018-12-20T17:26:25.430Z,54.10
2018-12-20T17:28:53.649Z,53.57
2018-12-20T17:31:21.833Z,55.40
2018-12-20T17:33:50.158Z,51.23
2018-12-20T17:36:18.358Z,55.70
2018-12-20T17:38:46.540Z,53.30
2018-12-20T17:41:14.733Z,54.60
2018-12-20T17:43:43.052Z,51.23
2018-12-20T17:46:11.264Z,54.23
2018-12-20T17:48:39.457Z,55.30
2018-12-20T17:51:07.658Z,50.00
2018-12-20T17:53:35.855Z,54.47
2018-12-20T17:56:04.033Z,49.43
2018-12-20T17:58:32.246Z,52.57
2018-12-20T18:01:00.424Z,55.73
2018-12-20T18:03:28.609Z,54.97
2018-12-20T18:05:56.812Z,51.63
2018-12-20T18:08:24.999Z,54.00
2018-12-20T18:10:53.182Z,56.13
2018-12-20T18:13:21.392Z,52.40
2018-12-20T18:15:49.570Z,51.10
2018-12-20T18:18:17.765Z,54.67
2018-12-20T18:20:46.006Z,51.17
2018-12-20T18:23:14.189Z,54.27
2018-12-20T18:25:42.369Z,59.00
2018-12-20T18:28:10.603Z,88.70
2018-12-20T18:30:38.787Z,57.57
2018-12-20T18:33:06.970Z,76.87
2018-12-20T18:35:35.185Z,54.27
2018-12-20T18:38:03.356Z,53.60
2018-12-20T18:40:31.550Z,49.80
2018-12-20T18:43:01.747Z,50.67
2018-12-20T18:45:29.983Z,50.90
2018-12-20T18:47:58.376Z,51.20
2018-12-20T18:50:26.597Z,52.47
2018-12-20T18:52:54.796Z,52.83
2018-12-20T18:55:23.011Z,54.57
2018-12-20T18:57:51.219Z,52.00
2018-12-20T19:00:19.407Z,56.20
2018-12-20T19:02:47.712Z,54.83
2018-12-20T19:05:15.939Z,54.37
2018-12-20T19:07:44.136Z,51.03
2018-12-20T19:10:12.320Z,50.97
2018-12-20T19:12:40.644Z,51.10
2018-12-20T19:15:09.199Z,53.13
2018-12-20T19:17:37.513Z,54.80
2018-12-20T19:20:15.837Z,53.13
2018-12-20T19:22:38.605Z,51.60
2018-12-20T19:25:06.784Z,54.00
2018-12-20T19:27:34.988Z,50.97
2018-12-20T19:30:04.038Z,50.80
2018-12-20T19:32:32.281Z,56.90
2018-12-20T19:35:00.488Z,52.33
2018-12-20T19:37:28.807Z,53.80
2018-12-20T19:39:59.178Z,51.30
2018-12-20T19:42:27.462Z,55.30
2018-12-20T19:44:56.743Z,54.60
2018-12-20T19:47:25.089Z,53.90
2018-12-20T19:49:53.283Z,53.33
2018-12-20T19:52:21.544Z,53.60
2018-12-20T19:54:49.715Z,53.73
2018-12-20T19:57:17.916Z,53.10
2018-12-20T19:59:46.093Z,55.10
2018-12-20T20:02:14.272Z,50.57
2018-12-20T20:04:42.474Z,52.07
2018-12-20T20:07:10.656Z,49.43
2018-12-20T20:09:38.827Z,52.00
2018-12-20T20:12:07.042Z,52.73
2018-12-20T20:14:35.236Z,55.70
2018-12-20T20:17:03.432Z,52.97
2018-12-20T20:19:31.654Z,55.60
2018-12-20T20:21:59.840Z,53.50
2018-12-20T20:24:28.109Z,54.60
2018-12-20T20:26:56.310Z,54.30
2018-12-20T20:29:24.502Z,55.30
2018-12-20T20:31:52.688Z,53.50
2018-12-20T20:34:21.108Z,52.83
2018-12-20T20:36:49.467Z,53.50
2018-12-20T20:39:17.737Z,59.13
2018-12-20T20:41:45.944Z,56.20
2018-12-20T20:44:14.136Z,57.87
2018-12-20T20:46:42.480Z,57.07
2018-12-20T20:49:10.683Z,58.73
2018-12-20T20:51:38.880Z,59.63
2018-12-20T20:54:07.150Z,61.97
2018-12-20T20:56:35.369Z,58.40
2018-12-20T20:59:03.552Z,54.23
2018-12-20T21:01:31.735Z,59.17
2018-12-20T21:04:03.840Z,57.57
2018-12-20T21:06:30.160Z,55.43
2018-12-20T21:08:58.336Z,62.80
2018-12-20T21:11:26.561Z,65.63
2018-12-20T21:13:54.852Z,56.90
2018-12-20T21:16:23.147Z,57.60
2018-12-20T21:18:51.372Z,52.80
2018-12-20T21:21:19.552Z,59.27
2018-12-20T21:23:47.749Z,56.57
2018-12-20T21:26:15.969Z,55.70
2018-12-20T21:28:44.225Z,55.97
2018-12-20T21:31:12.411Z,58.10
2018-12-20T21:33:40.600Z,56.97
2018-12-20T21:36:08.895Z,54.50
2018-12-20T21:38:37.286Z,55.03
2018-12-20T21:41:05.497Z,54.43
2018-12-20T21:43:33.786Z,53.70
2018-12-20T21:46:01.979Z,56.97
2018-12-20T21:48:30.218Z,54.90
2018-12-20T21:50:58.540Z,55.47
2018-12-20T21:53:26.726Z,52.63
2018-12-20T21:55:54.976Z,55.87
2018-12-20T21:58:23.278Z,54.17
2018-12-20T22:00:51.538Z,52.60
2018-12-20T22:03:19.739Z,62.07
2018-12-20T22:05:47.924Z,54.60
2018-12-20T22:08:16.176Z,60.80
2018-12-20T22:10:44.383Z,58.30
2018-12-20T22:13:12.558Z,56.27
2018-12-20T22:15:40.785Z,61.63
2018-12-20T22:18:08.985Z,60.97
2018-12-20T22:20:37.159Z,59.83
2018-12-20T22:23:05.345Z,66.83
2018-12-20T22:25:33.572Z,65.57
2018-12-20T22:28:01.763Z,64.87
2018-12-20T22:30:29.929Z,60.97
2018-12-20T22:32:58.136Z,62.50
2018-12-20T22:35:26.317Z,63.87
2018-12-20T22:37:54.495Z,61.87
2018-12-20T22:40:22.819Z,61.50
2018-12-20T22:42:50.984Z,63.63
2018-12-20T22:45:32.905Z,62.70
2018-12-20T22:48:16.807Z,68.87
2018-12-20T22:51:02.430Z,64.17
2018-12-20T22:53:45.195Z,67.57
2018-12-20T22:56:13.407Z,67.30
2018-12-20T22:58:41.625Z,64.43
2018-12-20T23:01:09.803Z,66.70
2018-12-20T23:03:38.028Z,63.90
2018-12-20T23:06:06.203Z,62.63
2018-12-20T23:08:34.484Z,61.50
2018-12-20T23:11:02.664Z,61.70
2018-12-20T23:13:30.835Z,63.70
2018-12-20T23:15:59.014Z,62.97
2018-12-20T23:18:27.296Z,61.70
2018-12-20T23:20:55.473Z,60.77
2018-12-20T23:23:23.644Z,61.83
2018-12-20T23:25:51.838Z,62.43
2018-12-20T23:28:20.036Z,62.90
2018-12-20T23:30:48.229Z,66.83
2018-12-20T23:33:16.437Z,75.80
2018-12-20T23:35:44.622Z,70.50
2018-12-20T23:38:12.878Z,64.60
2018-12-20T23:40:46.998Z,67.10
2018-12-20T23:43:15.181Z,64.37
2018-12-20T23:45:43.374Z,68.47
2018-12-20T23:48:11.588Z,64.70
2018-12-20T23:50:39.767Z,66.77
2018-12-20T23:53:07.943Z,63.00
2018-12-20T23:55:36.151Z,63.77
2018-12-20T23:58:04.324Z,63.00
